Time,TemperatureF,DewpointF,PressureIn,WindDirection,WindDirectionDegrees,WindSpeedMPH,WindSpeedGustMPH,Humidity,HourlyPrecipIn,Conditions,Clouds,dailyrainin,SoftwareType,DateUTC
2013-03-22 00:03:00,31.0,11.0,-100.00,NNW,337,6.0,10.0,41,0.00,,,-99.99,,2013-03-22 04:03:00,
2013-03-22 00:12:00,31.0,11.0,-100.00,NNW,337,6.0,10.0,41,0.00,,,-99.99,,2013-03-22 04:12:00,
2013-03-22 00:32:00,31.0,9.0,-100.00,NW,323,7.0,13.0,39,0.00,,,-99.99,,2013-03-22 04:32:00,
2013-03-22 00:43:00,31.0,9.0,-100.00,NW,323,7.0,13.0,39,0.00,,,-99.99,,2013-03-22 04:43:00,
2013-03-22 00:53:00,31.0,11.0,-100.00,NNW,339,10.0,14.0,41,0.00,,,-99.99,,2013-03-22 04:53:00,
2013-03-22 01:02:00,31.0,9.0,-100.00,NW,326,5.0,8.0,40,0.00,,,-99.99,,2013-03-22 05:02:00,
2013-03-22 01:12:00,31.0,9.0,-100.00,NW,326,5.0,8.0,40,0.00,,,-99.99,,2013-03-22 05:12:00,
2013-03-22 01:20:00,30.0,10.0,-100.00,NW,320,6.0,8.0,42,0.00,,,-99.99,,2013-03-22 05:20:00,
2013-03-22 01:22:00,31.0,9.0,-100.00,NW,326,5.0,8.0,40,0.00,,,-99.99,,2013-03-22 05:22:00,
2013-03-22 01:32:00,31.0,10.0,-100.00,NNW,330,7.0,11.0,42,0.00,,,-99.99,,2013-03-22 05:32:00,
2013-03-22 01:42:00,30.0,10.0,-100.00,NW,320,6.0,8.0,42,0.00,,,-99.99,,2013-03-22 05:42:00,
2013-03-22 01:52:00,30.0,10.0,-100.00,NW,320,6.0,8.0,42,0.00,,,-99.99,,2013-03-22 05:52:00,
2013-03-22 02:02:00,30.0,10.0,-100.00,NW,320,6.0,8.0,42,0.00,,,-99.99,,2013-03-22 06:02:00,
2013-03-22 02:13:00,30.0,10.0,-100.00,NW,320,6.0,8.0,42,0.00,,,-99.99,,2013-03-22 06:13:00,
2013-03-22 02:43:00,29.0,11.0,-100.00,NNW,333,4.0,7.0,45,0.00,,,-99.99,,2013-03-22 06:43:00,
2013-03-22 02:52:00,29.0,11.0,-100.00,NNW,333,4.0,7.0,45,0.00,,,-99.99,,2013-03-22 06:52:00,
2013-03-22 03:03:00,29.0,11.0,-100.00,NNW,333,4.0,7.0,45,0.00,,,-99.99,,2013-03-22 07:03:00,
2013-03-22 03:12:00,29.0,11.0,-100.00,North,356,6.0,12.0,45,0.00,,,-99.99,,2013-03-22 07:12:00,
2013-03-22 03:22:00,29.0,11.0,-100.00,North,356,6.0,12.0,45,0.00,,,-99.99,,2013-03-22 07:22:00,
2013-03-22 03:32:00,29.0,12.0,-100.00,NNW,347,6.0,10.0,48,0.00,,,-99.99,,2013-03-22 07:32:00,
2013-03-22 03:42:00,29.0,12.0,-100.00,NNW,347,6.0,10.0,48,0.00,,,-99.99,,2013-03-22 07:42:00,
2013-03-22 03:52:00,29.0,12.0,-100.00,NNW,347,6.0,10.0,48,0.00,,,-99.99,,2013-03-22 07:52:00,
2013-03-22 04:03:00,29.0,11.0,-100.00,NNW,332,6.0,11.0,47,0.00,,,-99.99,,2013-03-22 08:03:00,
2013-03-22 04:13:00,29.0,11.0,-100.00,NNW,332,6.0,11.0,47,0.00,,,-99.99,,2013-03-22 08:13:00,
2013-03-22 04:22:00,29.0,11.0,-100.00,NNW,332,6.0,11.0,47,0.00,,,-99.99,,2013-03-22 08:22:00,
2013-03-22 04:32:00,29.0,12.0,-100.00,NNW,332,7.0,11.0,49,0.00,,,-99.99,,2013-03-22 08:32:00,
2013-03-22 04:42:00,29.0,13.0,-100.00,NNW,336,5.0,7.0,50,0.00,,,-99.99,,2013-03-22 08:42:00,
2013-03-22 04:52:00,29.0,13.0,-100.00,NNW,336,5.0,7.0,50,0.00,,,-99.99,,2013-03-22 08:52:00,
2013-03-22 05:02:00,29.0,15.0,-100.00,North,10,6.0,9.0,55,0.00,,,-99.99,,2013-03-22 09:02:00,
2013-03-22 05:12:00,29.0,15.0,-100.00,North,10,6.0,9.0,55,0.00,,,-99.99,,2013-03-22 09:12:00,
2013-03-22 05:22:00,29.0,15.0,-100.00,North,10,6.0,9.0,55,0.00,,,-99.99,,2013-03-22 09:22:00,
2013-03-22 05:32:00,28.0,12.0,-100.00,NW,323,5.0,7.0,50,0.00,,,-99.99,,2013-03-22 09:32:00,
2013-03-22 05:42:00,27.0,11.0,-100.00,NW,315,5.0,8.0,50,0.00,,,-99.99,,2013-03-22 09:42:00,
2013-03-22 05:53:00,27.0,11.0,-100.00,NW,315,5.0,8.0,50,0.00,,,-99.99,,2013-03-22 09:53:00,
2013-03-22 06:04:00,27.0,11.0,-100.00,NW,315,5.0,8.0,50,0.00,,,-99.99,,2013-03-22 10:04:00,
2013-03-22 06:12:00,27.0,11.0,-100.00,NNW,337,3.0,6.0,51,0.00,,,-99.99,,2013-03-22 10:12:00,
2013-03-22 06:22:00,27.0,11.0,-100.00,NNW,337,3.0,6.0,51,0.00,,,-99.99,,2013-03-22 10:22:00,
2013-03-22 06:33:00,27.0,11.0,-100.00,WNW,302,3.0,6.0,50,0.00,,,-99.99,,2013-03-22 10:33:00,
2013-03-22 06:42:00,26.0,13.0,-100.00,WNW,285,4.0,7.0,55,0.00,,,-99.99,,2013-03-22 10:42:00,
2013-03-22 06:52:00,26.0,13.0,-100.00,WNW,285,4.0,7.0,55,0.00,,,-99.99,,2013-03-22 10:52:00,
2013-03-22 07:03:00,26.0,13.0,-100.00,WNW,285,4.0,7.0,55,0.00,,,-99.99,,2013-03-22 11:03:00,
2013-03-22 07:12:00,26.0,12.0,-100.00,West,271,4.0,6.0,56,0.00,,,-99.99,,2013-03-22 11:12:00,
2013-03-22 07:22:00,26.0,12.0,-100.00,West,271,4.0,6.0,56,0.00,,,-99.99,,2013-03-22 11:22:00,
2013-03-22 07:33:00,25.0,12.0,-100.00,West,271,5.0,6.0,56,0.00,,,-99.99,,2013-03-22 11:33:00,
2013-03-22 07:42:00,25.0,13.0,-100.00,West,280,3.0,4.0,59,0.00,,,-99.99,,2013-03-22 11:42:00,
2013-03-22 07:52:00,25.0,13.0,-100.00,West,280,3.0,4.0,59,0.00,,,-99.99,,2013-03-22 11:52:00,
2013-03-22 08:02:00,25.0,13.0,-100.00,West,280,3.0,4.0,59,0.00,,,-99.99,,2013-03-22 12:02:00,
2013-03-22 08:12:00,25.0,13.0,-100.00,West,278,4.0,6.0,59,0.00,,,-99.99,,2013-03-22 12:12:00,
2013-03-22 08:22:00,26.0,12.0,-100.00,WNW,284,3.0,6.0,56,0.00,,,-99.99,,2013-03-22 12:22:00,
2013-03-22 08:32:00,26.0,12.0,-100.00,WNW,284,3.0,6.0,56,0.00,,,-99.99,,2013-03-22 12:32:00,
2013-03-22 08:42:00,26.0,12.0,-100.00,WNW,284,3.0,6.0,56,0.00,,,-99.99,,2013-03-22 12:42:00,
2013-03-22 08:52:00,27.0,13.0,-100.00,WNW,292,3.0,5.0,54,0.00,,,-99.99,,2013-03-22 12:52:00,
2013-03-22 09:02:00,27.0,13.0,-100.00,WNW,292,3.0,5.0,54,0.00,,,-99.99,,2013-03-22 13:02:00,
2013-03-22 09:13:00,27.0,13.0,-100.00,WNW,292,3.0,5.0,54,0.00,,,-99.99,,2013-03-22 13:13:00,
2013-03-22 09:22:00,29.0,12.0,-100.00,NNW,335,4.0,6.0,48,0.00,,,0.04,,2013-03-22 13:22:00,
2013-03-22 09:32:00,29.0,12.0,-100.00,NNW,335,4.0,6.0,48,0.00,,,0.04,,2013-03-22 13:32:00,
2013-03-22 09:42:00,31.0,11.0,-100.00,NNW,333,8.0,13.0,42,0.00,,,0.04,,2013-03-22 13:42:00,
2013-03-22 09:53:00,31.0,11.0,-100.00,NNW,333,8.0,13.0,42,0.00,,,0.04,,2013-03-22 13:53:00,
2013-03-22 10:03:00,33.0,12.0,-100.00,North,6,6.0,11.0,41,0.00,,,0.04,,2013-03-22 14:03:00,
2013-03-22 10:12:00,33.0,12.0,-100.00,North,6,6.0,11.0,41,0.00,,,0.04,,2013-03-22 14:12:00,
2013-03-22 10:22:00,33.0,11.0,-100.00,NNE,17,6.0,10.0,39,0.00,,,0.01,,2013-03-22 14:22:00,
2013-03-22 10:32:00,33.0,11.0,-100.00,NNE,17,6.0,10.0,39,0.00,,,0.01,,2013-03-22 14:32:00,
2013-03-22 10:40:00,36.0,11.0,-100.00,NNW,342,6.0,8.0,36,0.00,,,0.00,,2013-03-22 14:40:00,
2013-03-22 10:42:00,33.0,11.0,-100.00,NNE,17,6.0,10.0,39,0.00,,,0.01,,2013-03-22 14:42:00,
2013-03-22 10:52:00,35.0,11.0,-100.00,North,350,4.0,6.0,37,0.00,,,0.00,,2013-03-22 14:52:00,
2013-03-22 11:03:00,35.0,11.0,-100.00,North,350,4.0,6.0,37,0.00,,,0.00,,2013-03-22 15:03:00,
2013-03-22 11:12:00,36.0,11.0,-100.00,NNW,342,6.0,8.0,36,0.00,,,0.00,,2013-03-22 15:12:00,
2013-03-22 11:22:00,36.0,11.0,-100.00,NNW,342,6.0,8.0,36,0.00,,,0.00,,2013-03-22 15:22:00,
2013-03-22 11:33:00,36.0,11.0,-100.00,NNW,342,6.0,8.0,36,0.00,,,0.00,,2013-03-22 15:33:00,
2013-03-22 11:40:00,38.0,11.0,-100.00,NNW,328,6.0,11.0,32,0.00,,,-99.99,,2013-03-22 15:40:00,
2013-03-22 11:53:00,38.0,12.0,-100.00,North,-999,2.0,6.0,34,-99.99,,,-99.99,,2013-03-22 15:53:00,
2013-03-22 12:03:00,38.0,12.0,-100.00,North,-999,2.0,6.0,34,-99.99,,,-99.99,,2013-03-22 16:03:00,
2013-03-22 12:13:00,38.0,11.0,-100.00,NNW,328,6.0,11.0,32,0.00,,,-99.99,,2013-03-22 16:13:00,
2013-03-22 12:23:00,38.0,11.0,-100.00,NNW,328,6.0,11.0,32,0.00,,,-99.99,,2013-03-22 16:23:00,
2013-03-22 12:32:00,38.0,11.0,-100.00,NNW,328,6.0,11.0,32,0.00,,,-99.99,,2013-03-22 16:32:00,
2013-03-22 12:53:00,41.0,12.0,-100.00,WNW,284,4.0,6.0,30,0.00,,,-99.99,,2013-03-22 16:53:00,
2013-03-22 13:03:00,41.0,12.0,-100.00,WNW,284,4.0,6.0,30,0.00,,,-99.99,,2013-03-22 17:03:00,
2013-03-22 13:12:00,41.0,10.0,-100.00,NNW,343,6.0,10.0,27,0.00,,,-99.99,,2013-03-22 17:12:00,
2013-03-22 13:23:00,41.0,10.0,-100.00,NNW,343,6.0,10.0,27,0.00,,,-99.99,,2013-03-22 17:23:00,
2013-03-22 13:32:00,43.0,12.0,-100.00,North,349,6.0,10.0,28,0.00,,,-99.99,,2013-03-22 17:32:00,
2013-03-22 13:42:00,44.0,12.0,-100.00,NNW,337,7.0,10.0,27,0.00,,,-99.99,,2013-03-22 17:42:00,
2013-03-22 13:53:00,44.0,12.0,-100.00,NNW,337,7.0,10.0,27,0.00,,,-99.99,,2013-03-22 17:53:00,
2013-03-22 14:02:00,45.0,11.0,-100.00,WNW,302,6.0,12.0,25,0.00,,,-99.99,,2013-03-22 18:02:00,
2013-03-22 14:12:00,45.0,11.0,-100.00,WNW,302,6.0,12.0,25,0.00,,,-99.99,,2013-03-22 18:12:00,
2013-03-22 14:22:00,45.0,12.0,-100.00,NNW,332,7.0,10.0,26,0.00,,,-99.99,,2013-03-22 18:22:00,
2013-03-22 14:33:00,45.0,12.0,-100.00,NNW,332,7.0,10.0,26,0.00,,,-99.99,,2013-03-22 18:33:00,
2013-03-22 14:42:00,46.0,10.0,-100.00,NNW,333,6.0,10.0,22,0.00,,,-99.99,,2013-03-22 18:42:00,
2013-03-22 14:52:00,46.0,10.0,-100.00,NNW,333,6.0,10.0,22,0.00,,,-99.99,,2013-03-22 18:52:00,
2013-03-22 15:02:00,46.0,10.0,-100.00,NNW,336,9.0,14.0,22,0.00,,,-99.99,,2013-03-22 19:02:00,
2013-03-22 15:12:00,46.0,10.0,-100.00,NNW,336,9.0,14.0,22,0.00,,,-99.99,,2013-03-22 19:12:00,
2013-03-22 15:22:00,49.0,10.0,-100.00,NW,309,7.0,10.0,20,0.00,,,-99.99,,2013-03-22 19:22:00,
2013-03-22 15:32:00,49.0,10.0,-100.00,NW,309,7.0,10.0,20,0.00,,,-99.99,,2013-03-22 19:32:00,
2013-03-22 15:42:00,49.0,11.0,-100.00,WNW,282,9.0,15.0,21,0.00,,,-99.99,,2013-03-22 19:42:00,
2013-03-22 15:52:00,49.0,11.0,-100.00,WNW,282,9.0,15.0,21,0.00,,,-99.99,,2013-03-22 19:52:00,
2013-03-22 16:02:00,48.0,10.0,-100.00,WNW,285,8.0,12.0,21,0.00,,,-99.99,,2013-03-22 20:02:00,
2013-03-22 16:13:00,48.0,10.0,-100.00,WNW,285,8.0,12.0,21,0.00,,,-99.99,,2013-03-22 20:13:00,
2013-03-22 16:22:00,49.0,10.0,-100.00,West,277,8.0,11.0,20,0.00,,,-99.99,,2013-03-22 20:22:00,
2013-03-22 16:32:00,49.0,10.0,-100.00,West,277,8.0,11.0,20,0.00,,,-99.99,,2013-03-22 20:32:00,
2013-03-22 16:43:00,50.0,13.0,-100.00,NNW,339,8.0,12.0,22,0.00,,,-99.99,,2013-03-22 20:43:00,
2013-03-22 16:52:00,50.0,13.0,-100.00,NNW,339,8.0,12.0,22,0.00,,,-99.99,,2013-03-22 20:52:00,
2013-03-22 17:03:00,51.0,9.0,-100.00,NW,305,5.0,9.0,18,0.00,,,-99.99,,2013-03-22 21:03:00,
2013-03-22 17:12:00,51.0,9.0,-100.00,NW,305,5.0,9.0,18,0.00,,,-99.99,,2013-03-22 21:12:00,
2013-03-22 17:22:00,51.0,9.0,-100.00,WNW,288,6.0,9.0,18,0.00,,,-99.99,,2013-03-22 21:22:00,
2013-03-22 17:33:00,51.0,9.0,-100.00,WNW,288,6.0,9.0,18,0.00,,,-99.99,,2013-03-22 21:33:00,
2013-03-22 17:43:00,50.0,11.0,-100.00,West,281,8.0,11.0,20,0.00,,,-99.99,,2013-03-22 21:43:00,
2013-03-22 17:53:00,50.0,11.0,-100.00,West,281,8.0,11.0,20,0.00,,,-99.99,,2013-03-22 21:53:00,
2013-03-22 18:03:00,48.0,11.0,-100.00,West,271,8.0,14.0,21,0.00,,,-99.99,,2013-03-22 22:03:00,
2013-03-22 18:12:00,48.0,11.0,-100.00,West,271,8.0,14.0,21,0.00,,,-99.99,,2013-03-22 22:12:00,
2013-03-22 18:23:00,48.0,11.0,-100.00,West,271,8.0,14.0,21,0.00,,,-99.99,,2013-03-22 22:23:00,
2013-03-22 18:32:00,48.0,11.0,-100.00,West,271,8.0,14.0,21,0.00,,,-99.99,,2013-03-22 22:32:00,
2013-03-22 18:42:00,49.0,11.0,-100.00,WNW,289,3.0,6.0,21,0.00,,,-99.99,,2013-03-22 22:42:00,
2013-03-22 18:53:00,49.0,11.0,-100.00,WNW,289,3.0,6.0,21,0.00,,,-99.99,,2013-03-22 22:53:00,
2013-03-22 19:02:00,48.0,10.0,-100.00,West,278,6.0,9.0,21,0.00,,,-99.99,,2013-03-22 23:02:00,
2013-03-22 19:12:00,48.0,10.0,-100.00,West,278,6.0,9.0,21,0.00,,,-99.99,,2013-03-22 23:12:00,
2013-03-22 19:22:00,48.0,10.0,-100.00,West,275,4.0,5.0,21,0.00,,,-99.99,,2013-03-22 23:22:00,
2013-03-22 19:32:00,48.0,10.0,-100.00,West,275,4.0,5.0,21,0.00,,,-99.99,,2013-03-22 23:32:00,
2013-03-22 19:42:00,46.0,13.0,-100.00,WSW,251,2.0,4.0,26,0.00,,,-99.99,,2013-03-22 23:42:00,
2013-03-22 19:52:00,46.0,13.0,-100.00,WSW,251,2.0,4.0,26,0.00,,,-99.99,,2013-03-22 23:52:00,
2013-03-22 20:02:00,44.0,15.0,-100.00,SSW,209,1.0,1.0,31,0.00,,,-99.99,,2013-03-23 00:02:00,
2013-03-22 20:12:00,44.0,15.0,-100.00,SSW,209,1.0,1.0,31,0.00,,,-99.99,,2013-03-23 00:12:00,
2013-03-22 20:23:00,43.0,15.0,-100.00,WSW,250,3.0,6.0,32,0.00,,,-99.99,,2013-03-23 00:23:00,
2013-03-22 20:33:00,43.0,15.0,-100.00,WSW,250,3.0,6.0,32,0.00,,,-99.99,,2013-03-23 00:33:00,
2013-03-22 20:42:00,43.0,15.0,-100.00,WSW,250,3.0,6.0,32,0.00,,,-99.99,,2013-03-23 00:42:00,
2013-03-22 20:52:00,44.0,16.0,-100.00,WSW,254,3.0,4.0,33,0.00,,,-99.99,,2013-03-23 00:52:00,
2013-03-22 21:03:00,42.0,17.0,-100.00,WSW,258,2.0,4.0,35,0.00,,,-99.99,,2013-03-23 01:03:00,
2013-03-22 21:12:00,42.0,17.0,-100.00,WSW,258,2.0,4.0,35,0.00,,,-99.99,,2013-03-23 01:12:00,
2013-03-22 21:22:00,42.0,17.0,-100.00,WSW,258,2.0,4.0,35,0.00,,,-99.99,,2013-03-23 01:22:00,
2013-03-22 21:32:00,42.0,17.0,-100.00,West,267,2.0,3.0,36,0.00,,,-99.99,,2013-03-23 01:32:00,
2013-03-22 21:42:00,40.0,20.0,-100.00,WSW,256,2.0,4.0,44,0.00,,,-99.99,,2013-03-23 01:42:00,
2013-03-22 21:52:00,40.0,20.0,-100.00,WSW,256,2.0,4.0,44,0.00,,,-99.99,,2013-03-23 01:52:00,
2013-03-22 22:02:00,40.0,20.0,-100.00,WSW,256,2.0,4.0,44,0.00,,,-99.99,,2013-03-23 02:02:00,
2013-03-22 22:12:00,38.0,24.0,-100.00,West,268,2.0,2.0,57,0.00,,,-99.99,,2013-03-23 02:12:00,
2013-03-22 22:22:00,38.0,23.0,-100.00,West,260,1.0,2.0,55,0.00,,,-99.99,,2013-03-23 02:22:00,
2013-03-22 22:32:00,38.0,23.0,-100.00,West,260,1.0,2.0,55,0.00,,,-99.99,,2013-03-23 02:32:00,
2013-03-22 22:42:00,38.0,23.0,-100.00,West,260,1.0,2.0,55,0.00,,,-99.99,,2013-03-23 02:42:00,
2013-03-22 22:52:00,37.0,24.0,-100.00,West,260,2.0,3.0,58,0.00,,,-99.99,,2013-03-23 02:52:00,
2013-03-22 23:02:00,36.0,23.0,-100.00,West,260,2.0,3.0,58,0.00,,,-99.99,,2013-03-23 03:02:00,
2013-03-22 23:12:00,36.0,23.0,-100.00,West,260,2.0,3.0,58,0.00,,,-99.99,,2013-03-23 03:12:00,
2013-03-22 23:23:00,35.0,23.0,-100.00,WSW,254,3.0,4.0,60,0.00,,,-99.99,,2013-03-23 03:23:00,
2013-03-22 23:33:00,35.0,23.0,-100.00,WSW,254,3.0,4.0,60,0.00,,,-99.99,,2013-03-23 03:33:00,
2013-03-22 23:43:00,34.0,24.0,-100.00,West,261,2.0,2.0,66,0.00,,,-99.99,,2013-03-23 03:43:00,
2013-03-22 23:53:00,34.0,24.0,-100.00,West,261,2.0,2.0,66,0.00,,,-99.99,,2013-03-23 03:53:00,